sensor_id;sensor_type;location;lat;lon;timestamp;temperature;humidity
9385;DHT22;4732;49.340;10.886;2023-07-16T03:02:12;20.00;99.90
9385;DHT22;4732;49.340;10.886;2023-07-16T03:04:37;20.10;99.90
9385;DHT22;4732;49.340;10.886;2023-07-16T03:07:03;20.00;99.90
9385;DHT22;4732;49.340;10.886;2023-07-16T03:09:29;20.00;99.90
9385;DHT22;4732;49.340;10.886;2023-07-16T03:11:55;20.00;99.90
9385;DHT22;4732;49.340;10.886;2023-07-16T03:14:20;19.90;99.90
9385;DHT22;4732;49.340;10.886;2023-07-16T03:16:45;19.90;99.90
9385;DHT22;4732;49.340;10.886;2023-07-16T03:19:11;19.90;99.90
9385;DHT22;4732;49.340;10.886;2023-07-16T03:21:36;19.80;99.90
9385;DHT22;4732;49.340;10.886;2023-07-16T03:24:02;19.80;99.90
9385;DHT22;4732;49.340;10.886;2023-07-16T03:26:28;19.80;99.90
9385;DHT22;4732;49.340;10.886;2023-07-16T03:28:53;19.80;99.90
9385;DHT22;4732;49.340;10.886;2023-07-16T03:31:19;19.90;99.90
9385;DHT22;4732;49.340;10.886;2023-07-16T03:33:45;19.90;99.90
9385;DHT22;4732;49.340;10.886;2023-07-16T03:36:10;19.90;99.90
9385;DHT22;4732;49.340;10.886;2023-07-16T03:38:36;19.80;99.90
9385;DHT22;4732;49.340;10.886;2023-07-16T03:41:01;19.80;99.90
9385;DHT22;4732;49.340;10.886;2023-07-16T03:43:27;19.80;99.90
9385;DHT22;4732;49.340;10.886;2023-07-16T03:45:53;19.80;99.90
9385;DHT22;4732;49.340;10.886;2023-07-16T03:48:18;19.60;99.90
9385;DHT22;4732;49.340;10.886;2023-07-16T03:50:44;19.50;99.90
9385;DHT22;4732;49.340;10.886;2023-07-16T03:53:10;19.50;99.90
9385;DHT22;4732;49.340;10.886;2023-07-16T03:55:35;19.50;99.90
9385;DHT22;4732;49.340;10.886;2023-07-16T03:58:01;19.30;99.90
9385;DHT22;4732;49.340;10.886;2023-07-16T04:00:27;19.10;99.90
9385;DHT22;4732;49.340;10.886;2023-07-16T04:02:52;19.00;99.90
9385;DHT22;4732;49.340;10.886;2023-07-16T04:05:18;19.00;99.90
9385;DHT22;4732;49.340;10.886;2023-07-16T04:07:44;18.90;99.90
9385;DHT22;4732;49.340;10.886;2023-07-16T04:10:10;18.80;99.90
9385;DHT22;4732;49.340;10.886;2023-07-16T04:12:35;18.80;99.90
9385;DHT22;4732;49.340;10.886;2023-07-16T04:15:01;18.70;99.90
9385;DHT22;4732;49.340;10.886;2023-07-16T04:17:26;18.60;99.90
9385;DHT22;4732;49.340;10.886;2023-07-16T04:19:52;18.50;99.90
9385;DHT22;4732;49.340;10.886;2023-07-16T04:22:18;18.30;99.90
9385;DHT22;4732;49.340;10.886;2023-07-16T04:24:43;18.30;99.90
9385;DHT22;4732;49.340;10.886;2023-07-16T04:27:09;18.30;99.90
9385;DHT22;4732;49.340;10.886;2023-07-16T04:29:34;18.30;99.90
9385;DHT22;4732;49.340;10.886;2023-07-16T04:32:00;18.20;99.90
9385;DHT22;4732;49.340;10.886;2023-07-16T04:34:25;18.10;99.90
9385;DHT22;4732;49.340;10.886;2023-07-16T04:36:51;18.10;99.90
9385;DHT22;4732;49.340;10.886;2023-07-16T04:39:16;18.10;99.90
9385;DHT22;4732;49.340;10.886;2023-07-16T04:41:42;18.10;99.90
9385;DHT22;4732;49.340;10.886;2023-07-16T04:44:07;18.20;99.90
9385;DHT22;4732;49.340;10.886;2023-07-16T04:46:33;18.00;99.90
9385;DHT22;4732;49.340;10.886;2023-07-16T04:48:59;18.00;99.90
9385;DHT22;4732;49.340;10.886;2023-07-16T04:51:25;18.00;99.90
9385;DHT22;4732;49.340;10.886;2023-07-16T04:53:51;18.10;99.90
9385;DHT22;4732;49.340;10.886;2023-07-16T04:56:16;18.10;99.90
9385;DHT22;4732;49.340;10.886;2023-07-16T04:58:42;18.10;99.90
9385;DHT22;4732;49.340;10.886;2023-07-16T05:01:09;18.20;99.90
9385;DHT22;4732;49.340;10.886;2023-07-16T05:03:35;18.30;99.90
9385;DHT22;4732;49.340;10.886;2023-07-16T05:06:00;18.30;99.90
9385;DHT22;4732;49.340;10.886;2023-07-16T05:08:26;18.20;99.90
9385;DHT22;4732;49.340;10.886;2023-07-16T05:10:52;18.20;99.90
9385;DHT22;4732;49.340;10.886;2023-07-16T05:13:17;18.20;99.90
9385;DHT22;4732;49.340;10.886;2023-07-16T05:15:46;18.20;99.90
9385;DHT22;4732;49.340;10.886;2023-07-16T05:18:12;18.30;99.90
9385;DHT22;4732;49.340;10.886;2023-07-16T05:20:37;18.30;99.90
9385;DHT22;4732;49.340;10.886;2023-07-16T05:23:03;18.30;99.90
9385;DHT22;4732;49.340;10.886;2023-07-16T05:25:28;18.30;99.90
9385;DHT22;4732;49.340;10.886;2023-07-16T05:27:55;18.30;99.90
9385;DHT22;4732;49.340;10.886;2023-07-16T05:30:21;18.40;99.90
9385;DHT22;4732;49.340;10.886;2023-07-16T05:32:46;18.40;99.90
9385;DHT22;4732;49.340;10.886;2023-07-16T05:35:12;18.50;99.90
9385;DHT22;4732;49.340;10.886;2023-07-16T05:37:38;18.50;99.90
9385;DHT22;4732;49.340;10.886;2023-07-16T05:40:07;18.50;99.90
9385;DHT22;4732;49.340;10.886;2023-07-16T05:42:36;18.50;99.90
9385;DHT22;4732;49.340;10.886;2023-07-16T05:45:02;18.60;99.90
9385;DHT22;4732;49.340;10.886;2023-07-16T05:47:28;18.60;99.90
9385;DHT22;4732;49.340;10.886;2023-07-16T05:49:54;18.80;99.90
9385;DHT22;4732;49.340;10.886;2023-07-16T05:52:19;18.90;99.90
9385;DHT22;4732;49.340;10.886;2023-07-16T05:54:45;19.00;99.90
9385;DHT22;4732;49.340;10.886;2023-07-16T05:57:10;19.00;99.90
9385;DHT22;4732;49.340;10.886;2023-07-16T05:59:36;18.90;99.90
9385;DHT22;4732;49.340;10.886;2023-07-16T06:02:03;19.00;99.90
9385;DHT22;4732;49.340;10.886;2023-07-16T06:04:28;19.00;99.90
9385;DHT22;4732;49.340;10.886;2023-07-16T06:06:54;19.00;99.90
9385;DHT22;4732;49.340;10.886;2023-07-16T06:09:20;19.00;99.90
9385;DHT22;4732;49.340;10.886;2023-07-16T06:11:49;19.00;99.90
9385;DHT22;4732;49.340;10.886;2023-07-16T06:14:14;19.00;99.90
9385;DHT22;4732;49.340;10.886;2023-07-16T06:16:40;19.00;99.90
9385;DHT22;4732;49.340;10.886;2023-07-16T06:19:06;19.00;99.90
9385;DHT22;4732;49.340;10.886;2023-07-16T06:21:31;19.00;99.90
9385;DHT22;4732;49.340;10.886;2023-07-16T06:23:57;18.90;99.90
9385;DHT22;4732;49.340;10.886;2023-07-16T06:26:22;18.70;99.90
9385;DHT22;4732;49.340;10.886;2023-07-16T06:28:48;18.70;99.90
9385;DHT22;4732;49.340;10.886;2023-07-16T06:31:16;18.80;99.90
9385;DHT22;4732;49.340;10.886;2023-07-16T06:33:41;18.80;99.90
9385;DHT22;4732;49.340;10.886;2023-07-16T06:36:07;18.90;99.90
9385;DHT22;4732;49.340;10.886;2023-07-16T06:38:32;19.00;99.90
9385;DHT22;4732;49.340;10.886;2023-07-16T06:40:58;19.00;99.90
9385;DHT22;4732;49.340;10.886;2023-07-16T06:43:23;19.10;99.90
9385;DHT22;4732;49.340;10.886;2023-07-16T06:45:50;19.30;99.90
9385;DHT22;4732;49.340;10.886;2023-07-16T06:48:16;19.40;99.90
9385;DHT22;4732;49.340;10.886;2023-07-16T06:50:42;19.50;99.90
9385;DHT22;4732;49.340;10.886;2023-07-16T06:53:07;19.50;99.90
9385;DHT22;4732;49.340;10.886;2023-07-16T06:55:33;19.40;99.90
9385;DHT22;4732;49.340;10.886;2023-07-16T06:57:59;19.40;99.90
9385;DHT22;4732;49.340;10.886;2023-07-16T07:00:25;19.40;99.90
9385;DHT22;4732;49.340;10.886;2023-07-16T07:02:50;19.20;99.90
9385;DHT22;4732;49.340;10.886;2023-07-16T07:05:16;19.10;99.90
9385;DHT22;4732;49.340;10.886;2023-07-16T07:07:41;19.00;99.90
9385;DHT22;4732;49.340;10.886;2023-07-16T07:10:08;19.00;99.90
9385;DHT22;4732;49.340;10.886;2023-07-16T07:12:34;18.90;99.90
9385;DHT22;4732;49.340;10.886;2023-07-16T07:15:04;18.90;99.90
9385;DHT22;4732;49.340;10.886;2023-07-16T07:17:30;18.80;99.90
9385;DHT22;4732;49.340;10.886;2023-07-16T07:19:56;18.80;99.90
9385;DHT22;4732;49.340;10.886;2023-07-16T07:22:21;18.80;99.90
9385;DHT22;4732;49.340;10.886;2023-07-16T07:24:47;18.90;99.90
9385;DHT22;4732;49.340;10.886;2023-07-16T07:27:12;19.10;99.90
9385;DHT22;4732;49.340;10.886;2023-07-16T07:29:38;19.20;99.90
9385;DHT22;4732;49.340;10.886;2023-07-16T07:32:04;19.40;99.90
9385;DHT22;4732;49.340;10.886;2023-07-16T07:34:29;19.30;99.90
9385;DHT22;4732;49.340;10.886;2023-07-16T07:36:55;19.30;99.90
9385;DHT22;4732;49.340;10.886;2023-07-16T07:39:20;19.50;99.90
9385;DHT22;4732;49.340;10.886;2023-07-16T07:41:46;19.30;99.90
9385;DHT22;4732;49.340;10.886;2023-07-16T07:44:11;19.40;99.90
9385;DHT22;4732;49.340;10.886;2023-07-16T07:46:37;19.40;99.90
9385;DHT22;4732;49.340;10.886;2023-07-16T07:49:02;19.40;99.90
9385;DHT22;4732;49.340;10.886;2023-07-16T07:51:28;19.40;99.90
9385;DHT22;4732;49.340;10.886;2023-07-16T07:53:53;19.50;99.90
9385;DHT22;4732;49.340;10.886;2023-07-16T07:56:19;19.60;99.90
9385;DHT22;4732;49.340;10.886;2023-07-16T07:58:44;19.60;99.90
9385;DHT22;4732;49.340;10.886;2023-07-16T08:01:10;19.60;99.90
9385;DHT22;4732;49.340;10.886;2023-07-16T08:03:35;19.60;99.90
9385;DHT22;4732;49.340;10.886;2023-07-16T08:06:01;19.50;99.90
9385;DHT22;4732;49.340;10.886;2023-07-16T08:08:26;19.40;99.90
9385;DHT22;4732;49.340;10.886;2023-07-16T08:10:53;19.40;99.90
9385;DHT22;4732;49.340;10.886;2023-07-16T08:13:18;19.40;99.90
9385;DHT22;4732;49.340;10.886;2023-07-16T08:15:44;19.50;99.90
9385;DHT22;4732;49.340;10.886;2023-07-16T08:18:10;19.60;99.90
9385;DHT22;4732;49.340;10.886;2023-07-16T08:20:36;19.80;99.90
9385;DHT22;4732;49.340;10.886;2023-07-16T08:23:01;20.00;99.90
9385;DHT22;4732;49.340;10.886;2023-07-16T08:25:27;20.10;99.90
9385;DHT22;4732;49.340;10.886;2023-07-16T08:27:53;20.20;99.90
9385;DHT22;4732;49.340;10.886;2023-07-16T08:30:18;20.40;99.90
9385;DHT22;4732;49.340;10.886;2023-07-16T08:32:44;20.40;99.90
9385;DHT22;4732;49.340;10.886;2023-07-16T08:35:09;20.60;99.90
9385;DHT22;4732;49.340;10.886;2023-07-16T08:37:42;20.80;99.90
9385;DHT22;4732;49.340;10.886;2023-07-16T08:40:08;20.90;99.90
9385;DHT22;4732;49.340;10.886;2023-07-16T08:42:39;20.90;99.90
9385;DHT22;4732;49.340;10.886;2023-07-16T08:45:10;21.00;99.90
9385;DHT22;4732;49.340;10.886;2023-07-16T08:47:36;21.00;99.90
9385;DHT22;4732;49.340;10.886;2023-07-16T08:50:02;20.90;99.90
9385;DHT22;4732;49.340;10.886;2023-07-16T08:52:29;20.70;99.90
9385;DHT22;4732;49.340;10.886;2023-07-16T08:54:55;20.60;99.90
9385;DHT22;4732;49.340;10.886;2023-07-16T08:57:21;20.60;99.90
9385;DHT22;4732;49.340;10.886;2023-07-16T08:59:51;20.70;99.90
9385;DHT22;4732;49.340;10.886;2023-07-16T09:02:20;20.80;99.90
9385;DHT22;4732;49.340;10.886;2023-07-16T09:04:47;21.00;99.90
9385;DHT22;4732;49.340;10.886;2023-07-16T09:07:13;21.00;99.90
9385;DHT22;4732;49.340;10.886;2023-07-16T09:09:39;21.50;99.90
9385;DHT22;4732;49.340;10.886;2023-07-16T09:12:04;21.80;99.90
9385;DHT22;4732;49.340;10.886;2023-07-16T09:14:30;22.10;99.90
9385;DHT22;4732;49.340;10.886;2023-07-16T09:16:56;22.50;99.90
9385;DHT22;4732;49.340;10.886;2023-07-16T09:19:21;22.90;99.90
9385;DHT22;4732;49.340;10.886;2023-07-16T09:21:51;22.80;99.90
9385;DHT22;4732;49.340;10.886;2023-07-16T09:24:17;22.80;99.90
9385;DHT22;4732;49.340;10.886;2023-07-16T09:26:53;22.90;99.90
9385;DHT22;4732;49.340;10.886;2023-07-16T09:29:20;23.30;99.90
9385;DHT22;4732;49.340;10.886;2023-07-16T09:31:59;23.40;99.90
9385;DHT22;4732;49.340;10.886;2023-07-16T09:34:29;23.40;99.90
9385;DHT22;4732;49.340;10.886;2023-07-16T09:36:56;22.80;99.90
9385;DHT22;4732;49.340;10.886;2023-07-16T09:39:22;22.70;99.90
9385;DHT22;4732;49.340;10.886;2023-07-16T09:41:49;23.00;99.90
9385;DHT22;4732;49.340;10.886;2023-07-16T09:44:16;23.10;99.90
9385;DHT22;4732;49.340;10.886;2023-07-16T09:46:42;23.10;99.90
9385;DHT22;4732;49.340;10.886;2023-07-16T09:49:08;23.00;99.90
9385;DHT22;4732;49.340;10.886;2023-07-16T09:51:36;22.90;99.90
9385;DHT22;4732;49.340;10.886;2023-07-16T09:54:02;22.90;99.90
9385;DHT22;4732;49.340;10.886;2023-07-16T09:56:33;22.90;99.90
9385;DHT22;4732;49.340;10.886;2023-07-16T09:58:59;23.20;99.90
9385;DHT22;4732;49.340;10.886;2023-07-16T10:01:26;23.20;99.90
9385;DHT22;4732;49.340;10.886;2023-07-16T10:03:51;23.10;99.90
9385;DHT22;4732;49.340;10.886;2023-07-16T10:06:17;23.10;99.90
9385;DHT22;4732;49.340;10.886;2023-07-16T10:08:49;23.10;99.90
9385;DHT22;4732;49.340;10.886;2023-07-16T10:11:18;23.40;99.90
9385;DHT22;4732;49.340;10.886;2023-07-16T10:13:49;23.30;99.90
9385;DHT22;4732;49.340;10.886;2023-07-16T10:16:22;23.40;99.90
9385;DHT22;4732;49.340;10.886;2023-07-16T10:18:52;23.40;99.90
9385;DHT22;4732;49.340;10.886;2023-07-16T10:21:24;23.30;99.90
9385;DHT22;4732;49.340;10.886;2023-07-16T10:23:59;23.40;99.90
9385;DHT22;4732;49.340;10.886;2023-07-16T10:26:29;23.70;99.90
9385;DHT22;4732;49.340;10.886;2023-07-16T10:28:55;23.80;99.90
9385;DHT22;4732;49.340;10.886;2023-07-16T10:31:23;23.60;99.90
9385;DHT22;4732;49.340;10.886;2023-07-16T10:34:02;23.40;99.90
9385;DHT22;4732;49.340;10.886;2023-07-16T10:36:30;23.30;99.90
9385;DHT22;4732;49.340;10.886;2023-07-16T10:39:02;23.70;99.90
9385;DHT22;4732;49.340;10.886;2023-07-16T10:41:28;24.20;99.90
9385;DHT22;4732;49.340;10.886;2023-07-16T10:43:54;24.40;99.90
9385;DHT22;4732;49.340;10.886;2023-07-16T10:46:20;24.70;99.90
9385;DHT22;4732;49.340;10.886;2023-07-16T10:48:47;24.70;99.90
9385;DHT22;4732;49.340;10.886;2023-07-16T10:51:24;24.70;99.90
9385;DHT22;4732;49.340;10.886;2023-07-16T10:53:50;25.00;99.90
9385;DHT22;4732;49.340;10.886;2023-07-16T10:56:15;25.30;99.90
9385;DHT22;4732;49.340;10.886;2023-07-16T10:58:42;25.70;99.90
9385;DHT22;4732;49.340;10.886;2023-07-16T11:01:11;25.90;99.90
9385;DHT22;4732;49.340;10.886;2023-07-16T11:03:36;25.60;99.90
9385;DHT22;4732;49.340;10.886;2023-07-16T11:06:09;25.90;99.90
9385;DHT22;4732;49.340;10.886;2023-07-16T11:08:35;25.40;99.90
9385;DHT22;4732;49.340;10.886;2023-07-16T11:11:00;25.30;99.90
9385;DHT22;4732;49.340;10.886;2023-07-16T11:13:31;25.20;99.90
9385;DHT22;4732;49.340;10.886;2023-07-16T11:15:57;25.40;99.90
9385;DHT22;4732;49.340;10.886;2023-07-16T11:18:31;25.10;99.90
9385;DHT22;4732;49.340;10.886;2023-07-16T11:20:57;24.80;99.90
9385;DHT22;4732;49.340;10.886;2023-07-16T11:23:24;24.70;99.90
9385;DHT22;4732;49.340;10.886;2023-07-16T11:25:52;24.90;99.90
9385;DHT22;4732;49.340;10.886;2023-07-16T11:28:17;24.90;99.90
9385;DHT22;4732;49.340;10.886;2023-07-16T11:30:43;24.90;99.90
9385;DHT22;4732;49.340;10.886;2023-07-16T11:33:13;24.60;99.90
9385;DHT22;4732;49.340;10.886;2023-07-16T11:35:39;25.00;99.90
9385;DHT22;4732;49.340;10.886;2023-07-16T11:38:05;25.40;99.90
9385;DHT22;4732;49.340;10.886;2023-07-16T11:40:34;25.10;99.90
9385;DHT22;4732;49.340;10.886;2023-07-16T11:43:10;25.10;99.90
9385;DHT22;4732;49.340;10.886;2023-07-16T11:45:37;25.10;99.90
9385;DHT22;4732;49.340;10.886;2023-07-16T11:48:03;24.80;99.90
9385;DHT22;4732;49.340;10.886;2023-07-16T11:50:29;24.90;99.90
9385;DHT22;4732;49.340;10.886;2023-07-16T11:53:00;25.30;99.90
9385;DHT22;4732;49.340;10.886;2023-07-16T11:55:26;25.70;99.90
9385;DHT22;4732;49.340;10.886;2023-07-16T11:57:52;26.40;99.90
9385;DHT22;4732;49.340;10.886;2023-07-16T12:00:18;26.60;99.90
9385;DHT22;4732;49.340;10.886;2023-07-16T12:02:44;26.50;99.90
9385;DHT22;4732;49.340;10.886;2023-07-16T12:05:17;26.10;99.90
9385;DHT22;4732;49.340;10.886;2023-07-16T12:07:43;25.70;99.90
9385;DHT22;4732;49.340;10.886;2023-07-16T12:10:09;25.60;99.90
9385;DHT22;4732;49.340;10.886;2023-07-16T12:12:34;25.90;99.90
9385;DHT22;4732;49.340;10.886;2023-07-16T12:15:08;26.50;99.90
9385;DHT22;4732;49.340;10.886;2023-07-16T12:17:33;26.70;99.90
9385;DHT22;4732;49.340;10.886;2023-07-16T12:19:59;26.60;99.90
9385;DHT22;4732;49.340;10.886;2023-07-16T12:22:25;26.70;99.90
9385;DHT22;4732;49.340;10.886;2023-07-16T12:24:50;26.90;99.90
9385;DHT22;4732;49.340;10.886;2023-07-16T12:27:17;27.10;99.90
9385;DHT22;4732;49.340;10.886;2023-07-16T12:29:43;27.40;99.90
9385;DHT22;4732;49.340;10.886;2023-07-16T12:32:09;27.60;99.90
9385;DHT22;4732;49.340;10.886;2023-07-16T12:34:34;27.20;99.90
9385;DHT22;4732;49.340;10.886;2023-07-16T12:37:00;27.50;99.90
9385;DHT22;4732;49.340;10.886;2023-07-16T12:39:26;28.00;99.90
9385;DHT22;4732;49.340;10.886;2023-07-16T12:41:51;27.90;99.90
9385;DHT22;4732;49.340;10.886;2023-07-16T12:44:16;27.70;99.90
9385;DHT22;4732;49.340;10.886;2023-07-16T12:46:42;27.60;99.90
9385;DHT22;4732;49.340;10.886;2023-07-16T12:49:07;27.90;99.90
9385;DHT22;4732;49.340;10.886;2023-07-16T12:51:33;27.80;99.90
9385;DHT22;4732;49.340;10.886;2023-07-16T12:53:59;27.80;99.90
9385;DHT22;4732;49.340;10.886;2023-07-16T12:56:26;28.00;99.90
9385;DHT22;4732;49.340;10.886;2023-07-16T12:58:52;27.50;99.90
9385;DHT22;4732;49.340;10.886;2023-07-16T13:01:17;27.50;99.90
9385;DHT22;4732;49.340;10.886;2023-07-16T13:03:43;27.80;99.90
9385;DHT22;4732;49.340;10.886;2023-07-16T13:06:08;27.80;99.90
9385;DHT22;4732;49.340;10.886;2023-07-16T13:08:34;27.60;99.90
9385;DHT22;4732;49.340;10.886;2023-07-16T13:11:00;27.50;99.90
9385;DHT22;4732;49.340;10.886;2023-07-16T13:13:26;27.00;99.90
9385;DHT22;4732;49.340;10.886;2023-07-16T13:15:52;27.00;99.90
9385;DHT22;4732;49.340;10.886;2023-07-16T13:18:17;26.80;99.90
9385;DHT22;4732;49.340;10.886;2023-07-16T13:20:43;26.70;99.90
9385;DHT22;4732;49.340;10.886;2023-07-16T13:23:09;26.80;99.90
9385;DHT22;4732;49.340;10.886;2023-07-16T13:25:35;26.90;99.90
9385;DHT22;4732;49.340;10.886;2023-07-16T13:28:03;27.00;99.90
9385;DHT22;4732;49.340;10.886;2023-07-16T13:30:28;26.90;99.90
9385;DHT22;4732;49.340;10.886;2023-07-16T13:32:54;26.80;99.90
9385;DHT22;4732;49.340;10.886;2023-07-16T13:35:22;26.80;99.90
9385;DHT22;4732;49.340;10.886;2023-07-16T13:37:47;26.70;99.90
9385;DHT22;4732;49.340;10.886;2023-07-16T13:40:13;26.70;99.90
9385;DHT22;4732;49.340;10.886;2023-07-16T13:42:39;26.80;99.90
9385;DHT22;4732;49.340;10.886;2023-07-16T13:45:05;26.80;99.90
9385;DHT22;4732;49.340;10.886;2023-07-16T13:47:31;26.90;99.90
9385;DHT22;4732;49.340;10.886;2023-07-16T13:49:56;26.90;99.90
9385;DHT22;4732;49.340;10.886;2023-07-16T13:52:22;27.30;99.90
9385;DHT22;4732;49.340;10.886;2023-07-16T13:54:48;27.50;99.90
9385;DHT22;4732;49.340;10.886;2023-07-16T13:57:13;27.10;99.90
9385;DHT22;4732;49.340;10.886;2023-07-16T13:59:39;27.00;99.90
9385;DHT22;4732;49.340;10.886;2023-07-16T14:02:04;27.00;99.90
9385;DHT22;4732;49.340;10.886;2023-07-16T14:04:30;27.00;99.90
9385;DHT22;4732;49.340;10.886;2023-07-16T14:06:56;27.00;99.90
9385;DHT22;4732;49.340;10.886;2023-07-16T14:09:22;27.00;99.90
9385;DHT22;4732;49.340;10.886;2023-07-16T14:11:48;27.10;99.90
9385;DHT22;4732;49.340;10.886;2023-07-16T14:14:17;27.20;99.90
9385;DHT22;4732;49.340;10.886;2023-07-16T14:16:43;27.00;99.90
9385;DHT22;4732;49.340;10.886;2023-07-16T14:19:09;26.90;99.90
9385;DHT22;4732;49.340;10.886;2023-07-16T14:21:35;26.60;99.90
9385;DHT22;4732;49.340;10.886;2023-07-16T14:24:00;26.80;99.90
9385;DHT22;4732;49.340;10.886;2023-07-16T14:26:26;27.00;99.90
9385;DHT22;4732;49.340;10.886;2023-07-16T14:28:51;27.30;99.90
9385;DHT22;4732;49.340;10.886;2023-07-16T14:31:17;28.10;99.90
9385;DHT22;4732;49.340;10.886;2023-07-16T14:33:43;28.70;99.90
9385;DHT22;4732;49.340;10.886;2023-07-16T14:36:08;28.50;99.90
9385;DHT22;4732;49.340;10.886;2023-07-16T14:38:34;28.30;99.90
9385;DHT22;4732;49.340;10.886;2023-07-16T14:40:59;28.10;99.90
9385;DHT22;4732;49.340;10.886;2023-07-16T14:43:25;27.90;99.90
9385;DHT22;4732;49.340;10.886;2023-07-16T14:45:51;27.70;99.90
9385;DHT22;4732;49.340;10.886;2023-07-16T14:48:16;27.50;99.90
9385;DHT22;4732;49.340;10.886;2023-07-16T14:50:42;27.50;99.90
9385;DHT22;4732;49.340;10.886;2023-07-16T14:53:07;27.70;99.90
9385;DHT22;4732;49.340;10.886;2023-07-16T14:55:33;27.90;99.90
9385;DHT22;4732;49.340;10.886;2023-07-16T14:57:59;28.10;99.90
9385;DHT22;4732;49.340;10.886;2023-07-16T15:00:24;28.40;99.90
9385;DHT22;4732;49.340;10.886;2023-07-16T15:02:51;28.70;99.90
9385;DHT22;4732;49.340;10.886;2023-07-16T15:05:16;28.50;99.90
9385;DHT22;4732;49.340;10.886;2023-07-16T15:07:42;28.40;99.90
9385;DHT22;4732;49.340;10.886;2023-07-16T15:10:08;28.70;99.90
9385;DHT22;4732;49.340;10.886;2023-07-16T15:12:34;28.70;99.90
9385;DHT22;4732;49.340;10.886;2023-07-16T15:14:59;28.40;99.90
9385;DHT22;4732;49.340;10.886;2023-07-16T15:17:25;28.30;99.50
9385;DHT22;4732;49.340;10.886;2023-07-16T15:19:51;28.10;99.90
9385;DHT22;4732;49.340;10.886;2023-07-16T15:22:17;27.90;99.90
9385;DHT22;4732;49.340;10.886;2023-07-16T15:24:46;28.50;99.90
9385;DHT22;4732;49.340;10.886;2023-07-16T15:27:11;28.70;99.40
9385;DHT22;4732;49.340;10.886;2023-07-16T15:29:37;29.30;98.60
9385;DHT22;4732;49.340;10.886;2023-07-16T15:32:03;29.50;99.50
9385;DHT22;4732;49.340;10.886;2023-07-16T15:34:28;29.20;99.40
9385;DHT22;4732;49.340;10.886;2023-07-16T15:36:54;29.10;97.80
9385;DHT22;4732;49.340;10.886;2023-07-16T15:39:19;29.10;97.90
9385;DHT22;4732;49.340;10.886;2023-07-16T15:41:45;28.60;97.50
9385;DHT22;4732;49.340;10.886;2023-07-16T15:44:11;28.40;99.10
9385;DHT22;4732;49.340;10.886;2023-07-16T15:46:36;28.00;99.70
9385;DHT22;4732;49.340;10.886;2023-07-16T15:49:02;27.80;99.90
9385;DHT22;4732;49.340;10.886;2023-07-16T15:51:27;27.70;99.90
9385;DHT22;4732;49.340;10.886;2023-07-16T15:53:54;27.70;99.90
9385;DHT22;4732;49.340;10.886;2023-07-16T15:56:21;27.50;99.90
9385;DHT22;4732;49.340;10.886;2023-07-16T15:58:48;27.00;99.90
9385;DHT22;4732;49.340;10.886;2023-07-16T16:01:13;26.90;99.90
9385;DHT22;4732;49.340;10.886;2023-07-16T16:03:39;26.80;99.90
9385;DHT22;4732;49.340;10.886;2023-07-16T16:06:04;26.90;99.90
9385;DHT22;4732;49.340;10.886;2023-07-16T16:08:30;26.90;99.90
9385;DHT22;4732;49.340;10.886;2023-07-16T16:10:56;26.90;99.90
9385;DHT22;4732;49.340;10.886;2023-07-16T16:13:23;27.20;99.90
9385;DHT22;4732;49.340;10.886;2023-07-16T16:15:49;27.30;99.90
9385;DHT22;4732;49.340;10.886;2023-07-16T16:18:15;27.40;99.90
9385;DHT22;4732;49.340;10.886;2023-07-16T16:20:41;27.50;99.90
9385;DHT22;4732;49.340;10.886;2023-07-16T16:23:08;27.30;99.60
9385;DHT22;4732;49.340;10.886;2023-07-16T16:25:33;27.40;99.90
9385;DHT22;4732;49.340;10.886;2023-07-16T16:28:01;27.50;99.90
9385;DHT22;4732;49.340;10.886;2023-07-16T16:30:27;27.40;99.20
9385;DHT22;4732;49.340;10.886;2023-07-16T16:32:54;27.40;99.70
9385;DHT22;4732;49.340;10.886;2023-07-16T16:35:24;27.30;99.60
9385;DHT22;4732;49.340;10.886;2023-07-16T16:37:51;27.10;99.50
9385;DHT22;4732;49.340;10.886;2023-07-16T16:40:16;27.20;99.90
9385;DHT22;4732;49.340;10.886;2023-07-16T16:42:42;27.30;99.90
9385;DHT22;4732;49.340;10.886;2023-07-16T16:45:09;27.90;99.90
9385;DHT22;4732;49.340;10.886;2023-07-16T16:47:35;27.80;99.90
9385;DHT22;4732;49.340;10.886;2023-07-16T16:50:01;27.80;98.00
9385;DHT22;4732;49.340;10.886;2023-07-16T16:52:26;27.90;98.50
9385;DHT22;4732;49.340;10.886;2023-07-16T16:54:52;28.00;98.50
9385;DHT22;4732;49.340;10.886;2023-07-16T16:57:19;27.90;98.90
9385;DHT22;4732;49.340;10.886;2023-07-16T16:59:45;27.70;99.10
9385;DHT22;4732;49.340;10.886;2023-07-16T17:02:11;27.90;98.60
9385;DHT22;4732;49.340;10.886;2023-07-16T17:04:37;27.50;98.80
9385;DHT22;4732;49.340;10.886;2023-07-16T17:07:04;27.60;99.90
9385;DHT22;4732;49.340;10.886;2023-07-16T17:09:30;27.20;99.90
9385;DHT22;4732;49.340;10.886;2023-07-16T17:11:55;27.00;99.90
9385;DHT22;4732;49.340;10.886;2023-07-16T17:14:22;26.90;99.90
9385;DHT22;4732;49.340;10.886;2023-07-16T17:16:47;26.70;99.70
9385;DHT22;4732;49.340;10.886;2023-07-16T17:19:13;26.50;99.90
9385;DHT22;4732;49.340;10.886;2023-07-16T17:21:39;26.30;99.90
9385;DHT22;4732;49.340;10.886;2023-07-16T17:24:05;26.40;99.90
9385;DHT22;4732;49.340;10.886;2023-07-16T17:26:30;26.20;99.90
9385;DHT22;4732;49.340;10.886;2023-07-16T17:28:56;26.20;99.90
9385;DHT22;4732;49.340;10.886;2023-07-16T17:31:21;26.10;99.90
9385;DHT22;4732;49.340;10.886;2023-07-16T17:33:47;26.20;99.90
9385;DHT22;4732;49.340;10.886;2023-07-16T17:36:12;26.00;99.90
9385;DHT22;4732;49.340;10.886;2023-07-16T17:38:39;26.00;99.90
9385;DHT22;4732;49.340;10.886;2023-07-16T17:41:05;26.10;99.90
9385;DHT22;4732;49.340;10.886;2023-07-16T17:43:31;26.00;99.90
9385;DHT22;4732;49.340;10.886;2023-07-16T17:45:57;26.00;99.90
9385;DHT22;4732;49.340;10.886;2023-07-16T17:48:23;26.00;99.90
9385;DHT22;4732;49.340;10.886;2023-07-16T17:50:48;25.80;99.90
9385;DHT22;4732;49.340;10.886;2023-07-16T17:53:15;26.00;99.90
9385;DHT22;4732;49.340;10.886;2023-07-16T17:55:44;25.70;99.90
9385;DHT22;4732;49.340;10.886;2023-07-16T17:58:10;25.80;99.90
9385;DHT22;4732;49.340;10.886;2023-07-16T18:00:36;25.70;99.90
9385;DHT22;4732;49.340;10.886;2023-07-16T18:03:02;26.00;99.90
9385;DHT22;4732;49.340;10.886;2023-07-16T18:05:28;25.70;99.90
9385;DHT22;4732;49.340;10.886;2023-07-16T18:07:55;25.60;99.90
9385;DHT22;4732;49.340;10.886;2023-07-16T18:10:20;25.70;99.90
9385;DHT22;4732;49.340;10.886;2023-07-16T18:12:46;25.80;99.90
9385;DHT22;4732;49.340;10.886;2023-07-16T18:15:12;25.90;99.90
9385;DHT22;4732;49.340;10.886;2023-07-16T18:17:37;25.70;99.90
9385;DHT22;4732;49.340;10.886;2023-07-16T18:20:03;25.50;99.90
9385;DHT22;4732;49.340;10.886;2023-07-16T18:22:32;25.60;99.90
9385;DHT22;4732;49.340;10.886;2023-07-16T18:24:58;25.80;99.90
9385;DHT22;4732;49.340;10.886;2023-07-16T18:27:24;25.80;99.90
9385;DHT22;4732;49.340;10.886;2023-07-16T18:29:49;25.40;99.90
9385;DHT22;4732;49.340;10.886;2023-07-16T18:32:15;25.90;99.90
9385;DHT22;4732;49.340;10.886;2023-07-16T18:34:40;25.80;99.90
9385;DHT22;4732;49.340;10.886;2023-07-16T18:37:06;25.30;99.90
9385;DHT22;4732;49.340;10.886;2023-07-16T18:39:32;25.70;99.90